^^

Weather Underground History

Daily Summary for March 07, 2014 Units:  Metric    English   Both
Daily Weekly Monthly Yearly Custom
  High: Low: Average:
Temperature: 13 °C 2 °C 7.8 °C
Dew Point: 10 °C -1 °C 5.1 °C
Humidity: 96% 60% 83%
Wind Speed: 39km/h 0km/h 17.9km/h
Wind Gust: 39km/h - -
Wind- - WSW
Pressure: 1028.45 hPa 1013.21 hPa -
Precipitation: 2.03 mm    
Historical Graphs
 
 
Tabular Data for March 07, 2014
Time Temperature Dew Point Pressure Wind Wind Speed Wind Gust Humidity Rainfall Rate (Hourly) solar
00:02 8 °C 8 °C 1016.26 hPa W 24 km/h 24 km/h 94% 0 mm 0 W/m2
00:07 8 °C 8 °C 1016.26 hPa WSW 19 km/h 19 km/h 94% 0 mm 0 W/m2
00:12 8 °C 8 °C 1016.26 hPa SSW 20 km/h 20 km/h 94% 0 mm 0 W/m2
00:17 8 °C 8 °C 1016.26 hPa WSW 19 km/h 19 km/h 94% 0 mm 0 W/m2
00:22 8 °C 8 °C 1016.26 hPa SSW 20 km/h 20 km/h 94% 0 mm 0 W/m2
00:27 8 °C 8 °C 1016.26 hPa SSW 22 km/h 22 km/h 94% 0 mm 0 W/m2
00:32 8 °C 8 °C 1016.26 hPa WSW 22 km/h 22 km/h 94% 0 mm 0 W/m2
00:37 8 °C 8 °C 1016.26 hPa WSW 20 km/h 20 km/h 94% 0 mm 0 W/m2
00:42 8 °C 8 °C 1016.26 hPa SW 19 km/h 19 km/h 94% 0 mm 0 W/m2
00:47 8 °C 8 °C 1016.26 hPa SW 17 km/h 17 km/h 94% 0 mm 0 W/m2
00:52 8 °C 8 °C 1016.26 hPa S 22 km/h 22 km/h 94% 0 mm 0 W/m2
00:57 8 °C 8 °C 1015.92 hPa SSW 19 km/h 19 km/h 94% 0 mm 0 W/m2
01:02 8 °C 8 °C 1015.92 hPa WSW 22 km/h 22 km/h 94% 0 mm 0 W/m2
01:07 8 °C 8 °C 1015.92 hPa SSW 20 km/h 20 km/h 94% 0 mm 0 W/m2
01:12 8 °C 8 °C 1015.92 hPa SW 19 km/h 19 km/h 94% 0 mm 0 W/m2
01:17 8 °C 8 °C 1015.92 hPa WSW 22 km/h 22 km/h 94% 0 mm 0 W/m2
01:22 8 °C 8 °C 1015.92 hPa SSW 19 km/h 19 km/h 94% 0 mm 0 W/m2
01:27 8 °C 8 °C 1015.92 hPa SSW 19 km/h 19 km/h 94% 0 mm 0 W/m2
01:32 8 °C 8 °C 1015.92 hPa SSW 17 km/h 17 km/h 94% 0 mm 0 W/m2
01:37 8 °C 8 °C 1015.92 hPa W 20 km/h 20 km/h 94% 0 mm 0 W/m2
01:42 8 °C 7 °C 1015.92 hPa SW 17 km/h 17 km/h 93% 0 mm 0 W/m2
01:47 8 °C 7 °C 1015.92 hPa WSW 11 km/h 14 km/h 93% 0 mm 0 W/m2
01:52 8 °C 8 °C 1015.92 hPa SW 15 km/h 15 km/h 93% 0 mm 0 W/m2
01:57 8 °C 8 °C 1015.58 hPa WSW 19 km/h 19 km/h 93% 0 mm 0 W/m2
02:02 8 °C 8 °C 1015.58 hPa WSW 19 km/h 19 km/h 93% 0 mm 0 W/m2
02:07 8 °C 7 °C 1015.58 hPa SW 15 km/h 15 km/h 93% 0 mm 0 W/m2
02:12 8 °C 7 °C 1015.58 hPa SW 22 km/h 22 km/h 93% 0 mm 0 W/m2
02:17 8 °C 7 °C 1015.58 hPa WSW 20 km/h 20 km/h 93% 0 mm 0 W/m2
02:22 8 °C 7 °C 1015.58 hPa WSW 23 km/h 23 km/h 93% 0 mm 0 W/m2
02:27 8 °C 7 °C 1015.24 hPa WSW 20 km/h 20 km/h 93% 0 mm 0 W/m2
02:32 8 °C 7 °C 1015.24 hPa WSW 20 km/h 20 km/h 93% 0 mm 0 W/m2
02:37 8 °C 7 °C 1015.24 hPa SSW 19 km/h 19 km/h 93% 0 mm 0 W/m2
02:42 8 °C 7 °C 1015.24 hPa SSW 30 km/h 30 km/h 93% 0 mm 0 W/m2
02:47 8 °C 7 °C 1014.9 hPa SSW 21 km/h 21 km/h 93% 0 mm 0 W/m2
02:52 8 °C 7 °C 1014.9 hPa SSW 26 km/h 26 km/h 93% 0 mm 0 W/m2
02:57 8 °C 7 °C 1014.9 hPa SSW 20 km/h 20 km/h 93% 0 mm 0 W/m2
03:02 8 °C 7 °C 1014.9 hPa WSW 32 km/h 32 km/h 93% 0 mm 0 W/m2
03:07 8 °C 7 °C 1014.56 hPa SSW 19 km/h 19 km/h 93% 0 mm 0 W/m2
03:12 8 °C 7 °C 1014.56 hPa SSW 24 km/h 24 km/h 93% 0 mm 0 W/m2
03:17 8 °C 7 °C 1014.56 hPa WSW 17 km/h 17 km/h 93% 0 mm 0 W/m2
03:22 8 °C 7 °C 1014.56 hPa WSW 19 km/h 19 km/h 93% 0 mm 0 W/m2
03:27 8 °C 7 °C 1014.22 hPa SSW 26 km/h 26 km/h 93% 0 mm 0 W/m2
03:32 8 °C 8 °C 1014.22 hPa WSW 17 km/h 17 km/h 94% 0 mm 0 W/m2
03:37 8 °C 8 °C 1014.22 hPa WSW 19 km/h 19 km/h 94% 0 mm 0 W/m2
03:42 8 °C 8 °C 1014.22 hPa W 32 km/h 32 km/h 94% 0 mm 0 W/m2
03:47 8 °C 7 °C 1014.22 hPa WSW 15 km/h 15 km/h 93% 0 mm 0 W/m2
03:52 8 °C 7 °C 1014.22 hPa SW 26 km/h 26 km/h 93% 0 mm 0 W/m2
03:57 8 °C 7 °C 1013.88 hPa WSW 20 km/h 20 km/h 93% 0 mm 0 W/m2
04:02 8 °C 7 °C 1013.88 hPa SW 22 km/h 22 km/h 93% 0 mm 0 W/m2
04:07 8 °C 7 °C 1014.22 hPa WSW 20 km/h 20 km/h 93% 0 mm 0 W/m2
04:12 8 °C 7 °C 1014.22 hPa SSW 22 km/h 22 km/h 93% 0 mm 0 W/m2
04:17 8 °C 7 °C 1014.22 hPa WSW 20 km/h 20 km/h 93% 0 mm 0 W/m2
04:22 8 °C 7 °C 1013.88 hPa WSW 24 km/h 24 km/h 93% 0 mm 0 W/m2
04:27 8 °C 7 °C 1013.88 hPa WSW 28 km/h 28 km/h 93% 0 mm 0 W/m2
04:32 8 °C 8 °C 1013.88 hPa SW 26 km/h 26 km/h 93% 0 mm 0 W/m2
04:37 8 °C 8 °C 1013.88 hPa SW 24 km/h 24 km/h 93% 0 mm 0 W/m2
04:42 8 °C 8 °C 1013.88 hPa WSW 20 km/h 20 km/h 93% 0 mm 0 W/m2
04:47 8 °C 8 °C 1013.88 hPa SW 28 km/h 28 km/h 93% 0 mm 0 W/m2
04:52 8 °C 8 °C 1013.88 hPa W 21 km/h 21 km/h 93% 0 mm 0 W/m2
04:57 8 °C 7 °C 1013.88 hPa SSW 26 km/h 26 km/h 93% 0 mm 0 W/m2
05:03 8 °C 8 °C 1013.88 hPa SW 28 km/h 35 km/h 93% 0 mm 0 W/m2
05:08 8 °C 8 °C 1013.88 hPa SSW 22 km/h 22 km/h 93% 0 mm 0 W/m2
05:13 8 °C 8 °C 1013.88 hPa SW 19 km/h 19 km/h 93% 0 mm 0 W/m2
05:18 8 °C 8 °C 1013.88 hPa SSW 20 km/h 20 km/h 93% 0 mm 0 W/m2
05:23 8 °C 8 °C 1013.88 hPa SW 19 km/h 19 km/h 93% 0 mm 0 W/m2
05:28 8 °C 8 °C 1013.88 hPa SW 32 km/h 32 km/h 93% 0 mm 0 W/m2
05:33 8 °C 8 °C 1013.88 hPa SW 30 km/h 30 km/h 93% 0 mm 0 W/m2
05:38 8 °C 8 °C 1013.55 hPa SW 28 km/h 28 km/h 93% 0 mm 0 W/m2
05:43 8 °C 8 °C 1013.55 hPa SSW 20 km/h 20 km/h 93% 0 mm 0 W/m2
05:48 8 °C 8 °C 1013.55 hPa WSW 19 km/h 19 km/h 93% 0 mm 0 W/m2
05:53 8 °C 8 °C 1013.55 hPa SW 22 km/h 22 km/h 93% 0 mm 0 W/m2
05:58 8 °C 8 °C 1013.21 hPa SSW 20 km/h 20 km/h 93% 0 mm 0 W/m2
06:03 8 °C 8 °C 1013.21 hPa S 19 km/h 19 km/h 93% 0 mm 0 W/m2
06:08 8 °C 8 °C 1013.21 hPa WSW 19 km/h 19 km/h 93% 0 mm 0 W/m2
06:13 8 °C 8 °C 1013.55 hPa SSW 13 km/h 13 km/h 93% 0 mm 0 W/m2
06:18 8 °C 8 °C 1013.21 hPa WSW 19 km/h 19 km/h 93% 0 mm 0 W/m2
06:23 8 °C 8 °C 1013.21 hPa WSW 31 km/h 31 km/h 93% 0 mm 0 W/m2
06:28 9 °C 8 °C 1013.21 hPa WSW 26 km/h 26 km/h 93% 0 mm 0 W/m2
06:33 9 °C 8 °C 1013.21 hPa SW 32 km/h 32 km/h 93% 0 mm 0 W/m2
06:38 9 °C 8 °C 1013.21 hPa SW 24 km/h 24 km/h 93% 0 mm 0 W/m2
06:43 9 °C 8 °C 1013.21 hPa SSW 26 km/h 26 km/h 93% 0 mm 0 W/m2
06:48 9 °C 8 °C 1013.55 hPa SW 30 km/h 30 km/h 93% 0 mm 0 W/m2
06:53 9 °C 8 °C 1013.55 hPa W 20 km/h 20 km/h 93% 0 mm 0 W/m2
06:58 9 °C 8 °C 1013.88 hPa SW 30 km/h 30 km/h 93% 0 mm 0 W/m2
07:03 8 °C 8 °C 1013.88 hPa WSW 32 km/h 32 km/h 94% 0 mm 0 W/m2
07:08 8 °C 8 °C 1013.88 hPa WSW 30 km/h 30 km/h 94% 0 mm 0 W/m2
07:13 8 °C 8 °C 1013.88 hPa SSW 39 km/h 39 km/h 94% 0 mm 0 W/m2
07:18 8 °C 8 °C 1014.22 hPa WSW 39 km/h 39 km/h 94% 0.25 mm 0 W/m2
07:23 8 °C 8 °C 1014.22 hPa WSW 28 km/h 28 km/h 94% 0.25 mm 0 W/m2
07:28 8 °C 8 °C 1014.22 hPa SSW 28 km/h 28 km/h 94% 0.51 mm 0 W/m2
07:33 8 °C 8 °C 1014.22 hPa W 22 km/h 22 km/h 94% 0.51 mm 5 W/m2
07:38 8 °C 8 °C 1014.56 hPa SW 20 km/h 20 km/h 95% 0.51 mm 5 W/m2
07:43 8 °C 8 °C 1014.56 hPa W 28 km/h 28 km/h 95% 0.51 mm 5 W/m2
07:48 8 °C 8 °C 1014.9 hPa W 20 km/h 20 km/h 95% 0.51 mm 5 W/m2
07:53 8 °C 8 °C 1014.9 hPa W 20 km/h 20 km/h 95% 0.76 mm 7 W/m2
07:58 8 °C 8 °C 1014.9 hPa WSW 24 km/h 24 km/h 95% 0.76 mm 9 W/m2
08:03 9 °C 8 °C 1014.9 hPa W 24 km/h 24 km/h 95% 1.02 mm 7 W/m2
08:08 9 °C 8 °C 1015.24 hPa WSW 22 km/h 22 km/h 95% 1.27 mm 9 W/m2
08:13 9 °C 8 °C 1015.24 hPa WSW 34 km/h 34 km/h 95% 1.52 mm 9 W/m2
08:18 9 °C 8 °C 1015.58 hPa WSW 19 km/h 19 km/h 95% 1.52 mm 11 W/m2
08:23 9 °C 8 °C 1015.58 hPa W 22 km/h 22 km/h 95% 1.52 mm 9 W/m2
08:28 9 °C 8 °C 1015.92 hPa W 24 km/h 24 km/h 96% 1.52 mm 14 W/m2
08:33 9 °C 8 °C 1016.26 hPa W 20 km/h 20 km/h 96% 1.52 mm 28 W/m2
08:38 9 °C 8 °C 1016.26 hPa WSW 22 km/h 22 km/h 96% 1.78 mm 42 W/m2
08:43 9 °C 8 °C 1015.92 hPa W 22 km/h 22 km/h 96% 1.78 mm 88 W/m2
08:48 9 °C 8 °C 1015.92 hPa W 19 km/h 19 km/h 96% 1.52 mm 91 W/m2
08:53 9 °C 8 °C 1015.92 hPa W 16 km/h 16 km/h 96% 1.52 mm 95 W/m2
08:58 9 °C 8 °C 1015.58 hPa WSW 19 km/h 19 km/h 96% 1.52 mm 100 W/m2
09:03 9 °C 8 °C 1015.24 hPa SW 13 km/h 13 km/h 96% 1.52 mm 77 W/m2
09:08 9 °C 8 °C 1015.24 hPa SSW 13 km/h 13 km/h 96% 1.27 mm 107 W/m2
09:13 9 °C 8 °C 1015.58 hPa WSW 15 km/h 15 km/h 96% 1.27 mm 125 W/m2
09:18 9 °C 8 °C 1015.92 hPa WSW 15 km/h 15 km/h 96% 1.02 mm 160 W/m2
09:23 9 °C 8 °C 1016.26 hPa WSW 22 km/h 22 km/h 96% 0.76 mm 199 W/m2
09:28 9 °C 9 °C 1015.92 hPa WSW 17 km/h 17 km/h 96% 0.51 mm 169 W/m2
09:33 9 °C 9 °C 1016.26 hPa W 21 km/h 21 km/h 96% 0.51 mm 213 W/m2
09:38 9 °C 9 °C 1016.26 hPa WSW 19 km/h 19 km/h 96% 0.51 mm 218 W/m2
09:43 9 °C 9 °C 1016.26 hPa W 20 km/h 20 km/h 96% 0.51 mm 192 W/m2
09:48 9 °C 9 °C 1016.59 hPa WSW 24 km/h 24 km/h 96% 0.25 mm 169 W/m2
09:53 9 °C 9 °C 1016.59 hPa W 22 km/h 22 km/h 96% 0 mm 155 W/m2
09:58 9 °C 9 °C 1016.59 hPa WSW 19 km/h 19 km/h 96% 0 mm 202 W/m2
10:03 9 °C 9 °C 1016.93 hPa W 19 km/h 19 km/h 95% 0 mm 206 W/m2
10:08 10 °C 9 °C 1016.93 hPa WSW 19 km/h 19 km/h 95% 0 mm 174 W/m2
10:13 10 °C 9 °C 1016.93 hPa W 20 km/h 20 km/h 95% 0 mm 239 W/m2
10:18 10 °C 9 °C 1016.93 hPa WSW 19 km/h 19 km/h 95% 0 mm 167 W/m2
10:23 10 °C 9 °C 1017.27 hPa WSW 22 km/h 22 km/h 94% 0 mm 132 W/m2
10:28 10 °C 9 °C 1017.27 hPa WSW 24 km/h 24 km/h 94% 0 mm 211 W/m2
10:33 10 °C 9 °C 1017.27 hPa W 24 km/h 24 km/h 94% 0 mm 120 W/m2
10:38 10 °C 9 °C 1017.27 hPa W 19 km/h 19 km/h 93% 0 mm 200 W/m2
10:43 10 °C 9 °C 1017.27 hPa W 26 km/h 26 km/h 93% 0 mm 188 W/m2
10:48 11 °C 9 °C 1017.61 hPa WSW 22 km/h 22 km/h 93% 0 mm 587 W/m2
10:53 11 °C 9 °C 1017.95 hPa W 26 km/h 26 km/h 93% 0 mm 534 W/m2
10:58 11 °C 9 °C 1017.61 hPa W 24 km/h 24 km/h 92% 0 mm 647 W/m2
11:03 11 °C 9 °C 1017.95 hPa W 32 km/h 32 km/h 89% 0 mm 192 W/m2
11:08 11 °C 9 °C 1017.95 hPa W 22 km/h 22 km/h 89% 0 mm 190 W/m2
11:13 11 °C 9 °C 1017.95 hPa WNW 28 km/h 28 km/h 89% 0 mm 144 W/m2
11:18 11 °C 9 °C 1017.95 hPa WNW 24 km/h 24 km/h 89% 0 mm 522 W/m2
11:23 11 °C 9 °C 1018.29 hPa W 19 km/h 19 km/h 88% 0 mm 195 W/m2
11:28 11 °C 9 °C 1018.29 hPa WNW 30 km/h 30 km/h 88% 0 mm 218 W/m2
11:33 12 °C 10 °C 1018.29 hPa WNW 19 km/h 19 km/h 88% 0 mm 802 W/m2
11:38 12 °C 10 °C 1018.29 hPa WNW 20 km/h 20 km/h 87% 0 mm 601 W/m2
11:43 12 °C 9 °C 1018.29 hPa WNW 28 km/h 28 km/h 84% 0 mm 591 W/m2
11:48 12 °C 9 °C 1018.63 hPa WNW 32 km/h 32 km/h 83% 0 mm 83 W/m2
11:53 11 °C 9 °C 1018.63 hPa W 23 km/h 23 km/h 84% 0 mm 95 W/m2
11:58 12 °C 9 °C 1018.63 hPa WSW 22 km/h 22 km/h 85% 0 mm 629 W/m2
12:03 12 °C 9 °C 1018.63 hPa W 22 km/h 22 km/h 85% 0 mm 610 W/m2
12:08 12 °C 9 °C 1018.96 hPa W 28 km/h 28 km/h 83% 0 mm 599 W/m2
12:13 12 °C 9 °C 1018.96 hPa WNW 28 km/h 28 km/h 82% 0 mm 599 W/m2
12:18 12 °C 9 °C 1019.3 hPa W 26 km/h 26 km/h 81% 0 mm 84 W/m2
12:23 12 °C 9 °C 1019.3 hPa W 23 km/h 23 km/h 80% 0 mm 151 W/m2
12:28 12 °C 8 °C 1019.3 hPa WNW 30 km/h 30 km/h 77% 0 mm 95 W/m2
12:33 12 °C 8 °C 1019.3 hPa WNW 24 km/h 24 km/h 78% 0 mm 617 W/m2
12:38 12 °C 8 °C 1019.3 hPa W 28 km/h 28 km/h 76% 0 mm 629 W/m2
12:43 12 °C 8 °C 1019.64 hPa W 24 km/h 24 km/h 74% 0 mm 601 W/m2
12:48 12 °C 8 °C 1019.3 hPa WNW 22 km/h 22 km/h 73% 0 mm 137 W/m2
12:53 13 °C 8 °C 1019.3 hPa NW 20 km/h 20 km/h 75% 0 mm 693 W/m2
12:58 12 °C 8 °C 1019.3 hPa WNW 28 km/h 28 km/h 73% 0 mm 698 W/m2
13:03 12 °C 7 °C 1019.3 hPa NNW 26 km/h 26 km/h 73% 0 mm 162 W/m2
13:08 12 °C 7 °C 1019.98 hPa NW 32 km/h 32 km/h 74% 0 mm 561 W/m2
13:13 12 °C 7 °C 1020.32 hPa NW 28 km/h 28 km/h 74% 0 mm 598 W/m2
13:18 12 °C 7 °C 1020.32 hPa NW 19 km/h 19 km/h 73% 0 mm 223 W/m2
13:23 12 °C 7 °C 1020.66 hPa W 19 km/h 19 km/h 74% 0 mm 213 W/m2
13:28 12 °C 7 °C 1021 hPa NW 28 km/h 28 km/h 73% 0 mm 241 W/m2
13:33 11 °C 6 °C 1021 hPa WNW 33 km/h 33 km/h 71% 0 mm 199 W/m2
13:38 12 °C 7 °C 1021.33 hPa WNW 32 km/h 32 km/h 71% 0 mm 230 W/m2
13:43 12 °C 6 °C 1021.67 hPa WNW 22 km/h 22 km/h 70% 0 mm 181 W/m2
13:48 11 °C 6 °C 1022.01 hPa WNW 28 km/h 28 km/h 70% 0 mm 171 W/m2
13:53 11 °C 6 °C 1021.67 hPa WNW 20 km/h 20 km/h 69% 0 mm 234 W/m2
13:58 11 °C 6 °C 1021.67 hPa WNW 24 km/h 24 km/h 71% 0 mm 605 W/m2
14:03 11 °C 6 °C 1021.67 hPa NW 28 km/h 28 km/h 70% 0 mm 659 W/m2
14:08 11 °C 6 °C 1021.67 hPa WNW 19 km/h 19 km/h 70% 0 mm 650 W/m2
14:13 11 °C 6 °C 1022.01 hPa WNW 20 km/h 20 km/h 70% 0 mm 654 W/m2
14:18 11 °C 6 °C 1022.35 hPa WNW 24 km/h 24 km/h 68% 0 mm 587 W/m2
14:23 11 °C 6 °C 1022.35 hPa NW 32 km/h 32 km/h 69% 0 mm 613 W/m2
14:28 11 °C 6 °C 1022.69 hPa NW 32 km/h 32 km/h 68% 0 mm 490 W/m2
14:33 11 °C 6 °C 1022.35 hPa NW 26 km/h 26 km/h 68% 0 mm 483 W/m2
14:38 11 °C 6 °C 1022.35 hPa WNW 32 km/h 32 km/h 69% 0 mm 473 W/m2
14:43 11 °C 6 °C 1023.03 hPa WNW 24 km/h 24 km/h 69% 0 mm 424 W/m2
14:48 11 °C 5 °C 1023.03 hPa NW 32 km/h 32 km/h 70% 0 mm 418 W/m2
14:53 10 °C 4 °C 1022.69 hPa WNW 37 km/h 37 km/h 68% 0 mm 417 W/m2
14:58 10 °C 4 °C 1022.69 hPa WNW 37 km/h 37 km/h 68% 0 mm 390 W/m2
15:03 10 °C 4 °C 1022.69 hPa WNW 35 km/h 35 km/h 67% 0 mm 381 W/m2
15:08 10 °C 4 °C 1022.69 hPa NNW 30 km/h 30 km/h 66% 0 mm 371 W/m2
15:13 10 °C 4 °C 1022.69 hPa WNW 30 km/h 30 km/h 67% 0 mm 359 W/m2
15:18 10 °C 4 °C 1023.03 hPa NW 24 km/h 24 km/h 67% 0 mm 339 W/m2
15:23 10 °C 4 °C 1023.37 hPa NW 24 km/h 24 km/h 67% 0 mm 330 W/m2
15:28 10 °C 4 °C 1023.37 hPa NW 20 km/h 20 km/h 66% 0 mm 311 W/m2
15:33 10 °C 4 °C 1023.03 hPa NW 24 km/h 24 km/h 67% 0 mm 315 W/m2
15:38 10 °C 4 °C 1023.03 hPa NW 20 km/h 20 km/h 67% 0 mm 302 W/m2
15:43 10 °C 4 °C 1023.03 hPa WNW 22 km/h 22 km/h 68% 0 mm 253 W/m2
15:48 9 °C 3 °C 1023.37 hPa NNW 30 km/h 30 km/h 66% 0 mm 272 W/m2
15:53 9 °C 3 °C 1023.71 hPa WNW 32 km/h 32 km/h 66% 0 mm 237 W/m2
15:58 9 °C 3 °C 1023.37 hPa WNW 28 km/h 28 km/h 66% 0 mm 257 W/m2
16:03 9 °C 3 °C 1023.37 hPa WNW 28 km/h 28 km/h 67% 0 mm 229 W/m2
16:08 9 °C 3 °C 1023.37 hPa NW 28 km/h 28 km/h 67% 0 mm 220 W/m2
16:13 9 °C 4 °C 1023.71 hPa NW 26 km/h 26 km/h 68% 0 mm 197 W/m2
16:18 9 °C 3 °C 1023.71 hPa W 21 km/h 21 km/h 68% 0 mm 185 W/m2
16:23 9 °C 3 °C 1024.04 hPa WNW 28 km/h 28 km/h 68% 0 mm 165 W/m2
16:28 9 °C 3 °C 1024.04 hPa WNW 22 km/h 22 km/h 68% 0 mm 146 W/m2
16:33 9 °C 3 °C 1024.38 hPa NW 30 km/h 30 km/h 67% 0 mm 127 W/m2
16:38 9 °C 3 °C 1024.38 hPa WNW 26 km/h 26 km/h 65% 0 mm 111 W/m2
16:43 9 °C 3 °C 1024.38 hPa NW 19 km/h 19 km/h 65% 0 mm 107 W/m2
16:48 8 °C 2 °C 1024.38 hPa WNW 22 km/h 22 km/h 62% 0 mm 105 W/m2
16:53 8 °C 2 °C 1024.38 hPa WNW 24 km/h 24 km/h 62% 0 mm 79 W/m2
16:58 8 °C 1 °C 1024.72 hPa WNW 20 km/h 20 km/h 61% 0 mm 72 W/m2
17:03 8 °C 1 °C 1024.72 hPa WNW 20 km/h 20 km/h 61% 0 mm 53 W/m2
17:08 8 °C 1 °C 1024.72 hPa NW 20 km/h 20 km/h 60% 0 mm 44 W/m2
17:13 8 °C 1 °C 1024.72 hPa NW 20 km/h 20 km/h 60% 0 mm 42 W/m2
17:18 8 °C 0 °C 1025.06 hPa NW 20 km/h 20 km/h 60% 0 mm 28 W/m2
17:23 7 °C 1 °C 1025.4 hPa WNW 17 km/h 17 km/h 61% 0 mm 23 W/m2
17:28 7 °C 0 °C 1025.4 hPa NW 9 km/h 9 km/h 61% 0 mm 19 W/m2
17:33 7 °C 1 °C 1025.74 hPa NW 4 km/h 4 km/h 62% 0 mm 12 W/m2
17:38 7 °C 0 °C 1025.74 hPa NW 9 km/h 9 km/h 62% 0 mm 9 W/m2
17:43 7 °C 0 °C 1025.74 hPa NNW 11 km/h 11 km/h 62% 0 mm 7 W/m2
17:48 7 °C 0 °C 1025.74 hPa NW 11 km/h 11 km/h 62% 0 mm 5 W/m2
17:53 7 °C 0 °C 1025.74 hPa NW 7 km/h 7 km/h 63% 0 mm 0 W/m2
17:58 7 °C 0 °C 1025.74 hPa NW 11 km/h 11 km/h 63% 0 mm 0 W/m2
18:03 6 °C 0 °C 1025.74 hPa NW 9 km/h 9 km/h 65% 0 mm 0 W/m2
18:08 6 °C 0 °C 1026.08 hPa NW 6 km/h 6 km/h 66% 0 mm 0 W/m2
18:13 6 °C 0 °C 1026.08 hPa W 9 km/h 9 km/h 65% 0 mm 0 W/m2
18:18 6 °C -1 °C 1026.41 hPa SW 9 km/h 9 km/h 63% 0 mm 0 W/m2
18:23 6 °C -1 °C 1026.41 hPa NE 4 km/h   62% 0 mm 0 W/m2
18:28 6 °C -1 °C 1026.75 hPa Calm     61% 0 mm 0 W/m2
18:33 6 °C -1 °C 1027.09 hPa Calm     62% 0 mm 0 W/m2
18:38 6 °C -1 °C 1026.75 hPa NE 2 km/h 2 km/h 62% 0 mm 0 W/m2
18:43 6 °C -1 °C 1026.41 hPa NW 11 km/h 11 km/h 64% 0 mm 0 W/m2
18:48 6 °C -1 °C 1026.41 hPa WNW 11 km/h 11 km/h 65% 0 mm 0 W/m2
18:53 6 °C -1 °C 1026.41 hPa WNW 8 km/h 8 km/h 66% 0 mm 0 W/m2
18:58 6 °C -1 °C 1026.75 hPa NW 9 km/h 9 km/h 66% 0 mm 0 W/m2
19:03 5 °C -1 °C 1026.75 hPa NNW 4 km/h 4 km/h 67% 0 mm 0 W/m2
19:08 5 °C -1 °C 1027.09 hPa NNW 4 km/h   68% 0 mm 0 W/m2
19:13 5 °C 0 °C 1027.09 hPa Calm     69% 0 mm 0 W/m2
19:18 5 °C 0 °C 1027.09 hPa Calm   1 km/h 69% 0 mm 0 W/m2
19:23 5 °C -1 °C 1026.75 hPa NNW 9 km/h 9 km/h 69% 0 mm 0 W/m2
19:28 4 °C -1 °C 1026.75 hPa Calm     70% 0 mm 0 W/m2
19:33 4 °C -1 °C 1026.75 hPa NNW 2 km/h 2 km/h 71% 0 mm 0 W/m2
19:38 4 °C -1 °C 1026.75 hPa NNW 4 km/h   71% 0 mm 0 W/m2
19:42 4 °C -1 °C 1027.09 hPa ESE 11 km/h 11 km/h 71% 0 mm 0 W/m2
19:47 4 °C 0 °C 1027.09 hPa ESE 4 km/h   72% 0 mm 0 W/m2
19:52 4 °C 0 °C 1026.75 hPa Calm     73% 0 mm 0 W/m2
19:57 4 °C -1 °C 1026.75 hPa Calm     73% 0 mm 0 W/m2
20:02 4 °C -1 °C 1026.75 hPa NE 4 km/h 4 km/h 74% 0 mm 0 W/m2
20:07 4 °C 0 °C 1027.09 hPa ESE 10 km/h 10 km/h 76% 0 mm 0 W/m2
20:12 4 °C 0 °C 1027.43 hPa SE 11 km/h 11 km/h 76% 0 mm 0 W/m2
20:17 4 °C 0 °C 1027.09 hPa Calm     76% 0 mm 0 W/m2
20:22 4 °C 0 °C 1026.75 hPa Calm     76% 0 mm 0 W/m2
20:27 4 °C 0 °C 1027.09 hPa Calm     77% 0 mm 0 W/m2
20:32 3 °C 0 °C 1027.43 hPa Calm     78% 0 mm 0 W/m2
20:37 4 °C 1 °C 1027.09 hPa SE 6 km/h 6 km/h 79% 0 mm 0 W/m2
20:42 4 °C 0 °C 1027.09 hPa Calm     78% 0 mm 0 W/m2
20:47 4 °C 1 °C 1027.09 hPa NE 6 km/h 6 km/h 79% 0 mm 0 W/m2
20:52 4 °C 1 °C 1027.09 hPa E 6 km/h 6 km/h 78% 0 mm 0 W/m2
20:57 4 °C 1 °C 1027.43 hPa E 4 km/h   78% 0 mm 0 W/m2
21:02 4 °C 1 °C 1027.09 hPa E 6 km/h 6 km/h 78% 0 mm 0 W/m2
21:07 4 °C 1 °C 1027.09 hPa Calm     78% 0 mm 0 W/m2
21:12 4 °C 0 °C 1027.09 hPa Calm     78% 0 mm 0 W/m2
21:17 4 °C 0 °C 1027.09 hPa E 6 km/h 6 km/h 78% 0 mm 0 W/m2
21:22 4 °C 0 °C 1026.75 hPa Calm     78% 0 mm 0 W/m2
21:27 4 °C 0 °C 1027.09 hPa Calm     78% 0 mm 0 W/m2
21:32 3 °C 0 °C 1027.43 hPa E 6 km/h 6 km/h 79% 0 mm 0 W/m2
21:37 3 °C 0 °C 1027.43 hPa Calm     79% 0 mm 0 W/m2
21:42 3 °C 0 °C 1027.43 hPa Calm     79% 0 mm 0 W/m2
21:47 3 °C 0 °C 1027.77 hPa Calm     78% 0 mm 0 W/m2
21:53 3 °C 0 °C 1027.43 hPa Calm     78% 0 mm 0 W/m2
21:58 3 °C 0 °C 1027.77 hPa Calm     79% 0 mm 0 W/m2
22:03 3 °C 0 °C 1027.77 hPa Calm     79% 0 mm 0 W/m2
22:08 3 °C -1 °C 1027.77 hPa Calm     79% 0 mm 0 W/m2
22:13 3 °C -1 °C 1027.77 hPa Calm     80% 0 mm 0 W/m2
22:18 3 °C -1 °C 1028.11 hPa Calm     81% 0 mm 0 W/m2
22:23 2 °C -1 °C 1028.11 hPa Calm     82% 0 mm 0 W/m2
22:28 2 °C -1 °C 1028.45 hPa Calm     82% 0 mm 0 W/m2
22:33 2 °C 0 °C 1028.11 hPa Calm     83% 0 mm 0 W/m2
22:38 2 °C -1 °C 1028.11 hPa Calm     83% 0 mm 0 W/m2
22:43 2 °C -1 °C 1028.45 hPa Calm     83% 0 mm 0 W/m2
22:48 2 °C -1 °C 1028.45 hPa Calm     84% 0 mm 0 W/m2
22:53 2 °C 0 °C 1028.45 hPa Calm     84% 0 mm 0 W/m2
22:58 2 °C 0 °C 1028.45 hPa Calm     84% 0 mm 0 W/m2
23:03 2 °C 0 °C 1028.11 hPa E 4 km/h 4 km/h 84% 0 mm 0 W/m2
23:08 2 °C -1 °C 1028.11 hPa Calm     83% 0 mm 0 W/m2
23:13 2 °C 0 °C 1027.77 hPa E 4 km/h 4 km/h 83% 0 mm 0 W/m2
23:18 2 °C 0 °C 1028.11 hPa E 6 km/h 6 km/h 83% 0 mm 0 W/m2
23:23 3 °C 0 °C 1027.77 hPa E 4 km/h 4 km/h 83% 0 mm 0 W/m2
23:28 3 °C 0 °C 1027.77 hPa E 6 km/h 6 km/h 82% 0 mm 0 W/m2
23:33 3 °C 0 °C 1027.77 hPa E 6 km/h 6 km/h 81% 0 mm 0 W/m2
23:38 3 °C -1 °C 1027.77 hPa E 2 km/h   80% 0 mm 0 W/m2
23:43 3 °C -1 °C 1027.77 hPa Calm     80% 0 mm 0 W/m2
23:48 3 °C -1 °C 1027.77 hPa Calm     80% 0 mm 0 W/m2
23:53 3 °C -1 °C 1027.77 hPa SE 11 km/h 11 km/h 79% 0 mm 0 W/m2
23:58 3 °C -1 °C 1027.77 hPa Calm     80% 0 mm 0 W/m2
Compliments of Weather Underground - 4 mb